sensor_id;sensor_type;location;lat;lon;timestamp;P1;durP1;ratioP1;P2;durP2;ratioP2
17091;SDS011;8661;45.700;4.880;2022-10-31T00:00:03;16.07;;;7.07;;
17091;SDS011;8661;45.700;4.880;2022-10-31T00:02:32;15.43;;;7.40;;
17091;SDS011;8661;45.700;4.880;2022-10-31T00:04:59;19.47;;;7.90;;
17091;SDS011;8661;45.700;4.880;2022-10-31T00:07:27;19.80;;;7.40;;
17091;SDS011;8661;45.700;4.880;2022-10-31T00:09:54;14.03;;;6.77;;
17091;SDS011;8661;45.700;4.880;2022-10-31T00:12:21;16.23;;;7.30;;
17091;SDS011;8661;45.700;4.880;2022-10-31T00:14:48;18.83;;;7.47;;
17091;SDS011;8661;45.700;4.880;2022-10-31T00:17:15;16.10;;;7.17;;
17091;SDS011;8661;45.700;4.880;2022-10-31T00:19:41;16.13;;;7.27;;
17091;SDS011;8661;45.700;4.880;2022-10-31T00:22:08;16.67;;;6.57;;
17091;SDS011;8661;45.700;4.880;2022-10-31T00:24:36;24.30;;;7.63;;
17091;SDS011;8661;45.700;4.880;2022-10-31T00:27:03;14.90;;;7.10;;
17091;SDS011;8661;45.700;4.880;2022-10-31T00:29:30;18.73;;;7.37;;
17091;SDS011;8661;45.700;4.880;2022-10-31T00:31:57;16.93;;;7.60;;
17091;SDS011;8661;45.700;4.880;2022-10-31T00:34:24;15.83;;;7.30;;
17091;SDS011;8661;45.700;4.880;2022-10-31T00:36:51;17.33;;;7.77;;
17091;SDS011;8661;45.700;4.880;2022-10-31T00:39:18;17.77;;;8.40;;
17091;SDS011;8661;45.700;4.880;2022-10-31T00:41:46;18.27;;;7.20;;
17091;SDS011;8661;45.700;4.880;2022-10-31T00:44:13;18.80;;;7.17;;
17091;SDS011;8661;45.700;4.880;2022-10-31T00:46:39;16.80;;;7.87;;
17091;SDS011;8661;45.700;4.880;2022-10-31T00:49:06;16.33;;;7.50;;
17091;SDS011;8661;45.700;4.880;2022-10-31T00:51:33;15.93;;;8.20;;
17091;SDS011;8661;45.700;4.880;2022-10-31T00:54:00;16.13;;;7.93;;
17091;SDS011;8661;45.700;4.880;2022-10-31T00:56:27;15.77;;;7.43;;
17091;SDS011;8661;45.700;4.880;2022-10-31T00:58:55;17.20;;;8.03;;
17091;SDS011;8661;45.700;4.880;2022-10-31T01:01:22;18.60;;;7.93;;
17091;SDS011;8661;45.700;4.880;2022-10-31T01:03:49;15.57;;;8.20;;
17091;SDS011;8661;45.700;4.880;2022-10-31T01:06:16;16.57;;;8.27;;
17091;SDS011;8661;45.700;4.880;2022-10-31T01:08:42;18.53;;;8.20;;
17091;SDS011;8661;45.700;4.880;2022-10-31T01:11:12;15.73;;;9.00;;
17091;SDS011;8661;45.700;4.880;2022-10-31T01:13:40;17.27;;;7.93;;
17091;SDS011;8661;45.700;4.880;2022-10-31T01:16:10;21.37;;;7.87;;
17091;SDS011;8661;45.700;4.880;2022-10-31T01:18:38;15.00;;;7.87;;
17091;SDS011;8661;45.700;4.880;2022-10-31T01:21:06;16.83;;;8.23;;
17091;SDS011;8661;45.700;4.880;2022-10-31T01:23:34;19.67;;;7.73;;
17091;SDS011;8661;45.700;4.880;2022-10-31T01:26:02;20.50;;;9.20;;
17091;SDS011;8661;45.700;4.880;2022-10-31T01:28:31;16.67;;;8.07;;
17091;SDS011;8661;45.700;4.880;2022-10-31T01:30:59;14.23;;;8.10;;
17091;SDS011;8661;45.700;4.880;2022-10-31T01:33:29;19.37;;;8.13;;
17091;SDS011;8661;45.700;4.880;2022-10-31T01:35:56;18.70;;;7.70;;
17091;SDS011;8661;45.700;4.880;2022-10-31T01:38:23;18.23;;;8.50;;
17091;SDS011;8661;45.700;4.880;2022-10-31T01:40:50;21.67;;;8.23;;
17091;SDS011;8661;45.700;4.880;2022-10-31T01:43:17;16.37;;;7.47;;
17091;SDS011;8661;45.700;4.880;2022-10-31T01:45:44;26.90;;;8.87;;
17091;SDS011;8661;45.700;4.880;2022-10-31T01:48:17;16.83;;;7.50;;
17091;SDS011;8661;45.700;4.880;2022-10-31T01:50:49;23.03;;;8.60;;
17091;SDS011;8661;45.700;4.880;2022-10-31T01:53:19;20.70;;;8.37;;
17091;SDS011;8661;45.700;4.880;2022-10-31T01:55:47;18.00;;;8.67;;
17091;SDS011;8661;45.700;4.880;2022-10-31T01:58:14;15.63;;;7.53;;
17091;SDS011;8661;45.700;4.880;2022-10-31T02:00:45;14.63;;;8.10;;
17091;SDS011;8661;45.700;4.880;2022-10-31T02:03:14;17.73;;;8.37;;
17091;SDS011;8661;45.700;4.880;2022-10-31T02:05:42;19.57;;;8.07;;
17091;SDS011;8661;45.700;4.880;2022-10-31T02:08:12;15.50;;;7.93;;
17091;SDS011;8661;45.700;4.880;2022-10-31T02:10:44;11.87;;;7.83;;
17091;SDS011;8661;45.700;4.880;2022-10-31T02:13:11;19.27;;;8.00;;
17091;SDS011;8661;45.700;4.880;2022-10-31T02:15:39;15.60;;;8.53;;
17091;SDS011;8661;45.700;4.880;2022-10-31T02:18:07;22.53;;;9.20;;
17091;SDS011;8661;45.700;4.880;2022-10-31T02:20:36;17.00;;;7.70;;
17091;SDS011;8661;45.700;4.880;2022-10-31T02:26:28;13.27;;;8.03;;
17091;SDS011;8661;45.700;4.880;2022-10-31T02:32:20;13.77;;;7.97;;
17091;SDS011;8661;45.700;4.880;2022-10-31T02:34:55;17.73;;;8.43;;
17091;SDS011;8661;45.700;4.880;2022-10-31T02:37:25;17.93;;;7.87;;
17091;SDS011;8661;45.700;4.880;2022-10-31T02:40:00;21.67;;;8.67;;
17091;SDS011;8661;45.700;4.880;2022-10-31T02:42:32;19.63;;;9.30;;
17091;SDS011;8661;45.700;4.880;2022-10-31T02:45:05;18.53;;;8.17;;
17091;SDS011;8661;45.700;4.880;2022-10-31T02:47:39;15.00;;;8.73;;
17091;SDS011;8661;45.700;4.880;2022-10-31T02:50:10;19.57;;;8.07;;
17091;SDS011;8661;45.700;4.880;2022-10-31T02:52:42;15.37;;;8.13;;
17091;SDS011;8661;45.700;4.880;2022-10-31T02:55:09;18.47;;;8.40;;
17091;SDS011;8661;45.700;4.880;2022-10-31T02:57:38;15.07;;;8.00;;
17091;SDS011;8661;45.700;4.880;2022-10-31T03:00:08;19.37;;;7.87;;
17091;SDS011;8661;45.700;4.880;2022-10-31T03:02:43;22.03;;;8.20;;
17091;SDS011;8661;45.700;4.880;2022-10-31T03:05:22;19.27;;;8.40;;
17091;SDS011;8661;45.700;4.880;2022-10-31T03:08:06;18.20;;;8.23;;
17091;SDS011;8661;45.700;4.880;2022-10-31T03:10:40;27.73;;;8.43;;
17091;SDS011;8661;45.700;4.880;2022-10-31T03:13:12;24.10;;;8.17;;
17091;SDS011;8661;45.700;4.880;2022-10-31T03:15:48;19.23;;;7.60;;
17091;SDS011;8661;45.700;4.880;2022-10-31T03:18:19;23.03;;;7.67;;
17091;SDS011;8661;45.700;4.880;2022-10-31T03:20:52;22.27;;;8.33;;
17091;SDS011;8661;45.700;4.880;2022-10-31T03:23:25;17.30;;;8.60;;
17091;SDS011;8661;45.700;4.880;2022-10-31T03:25:54;16.13;;;8.37;;
17091;SDS011;8661;45.700;4.880;2022-10-31T03:28:22;16.20;;;8.70;;
17091;SDS011;8661;45.700;4.880;2022-10-31T03:30:54;22.23;;;8.67;;
17091;SDS011;8661;45.700;4.880;2022-10-31T03:33:26;16.57;;;8.10;;
17091;SDS011;8661;45.700;4.880;2022-10-31T03:35:55;18.07;;;7.73;;
17091;SDS011;8661;45.700;4.880;2022-10-31T03:38:26;19.33;;;8.63;;
17091;SDS011;8661;45.700;4.880;2022-10-31T03:40:53;18.70;;;8.90;;
17091;SDS011;8661;45.700;4.880;2022-10-31T03:43:26;18.60;;;8.60;;
17091;SDS011;8661;45.700;4.880;2022-10-31T03:45:55;19.37;;;10.10;;
17091;SDS011;8661;45.700;4.880;2022-10-31T03:48:24;17.30;;;8.53;;
17091;SDS011;8661;45.700;4.880;2022-10-31T03:50:57;16.80;;;8.63;;
17091;SDS011;8661;45.700;4.880;2022-10-31T03:53:30;13.80;;;8.17;;
17091;SDS011;8661;45.700;4.880;2022-10-31T03:56:01;18.77;;;8.10;;
17091;SDS011;8661;45.700;4.880;2022-10-31T03:58:34;16.00;;;8.50;;
17091;SDS011;8661;45.700;4.880;2022-10-31T04:01:05;15.63;;;8.70;;
17091;SDS011;8661;45.700;4.880;2022-10-31T04:03:36;13.80;;;7.80;;
17091;SDS011;8661;45.700;4.880;2022-10-31T04:06:05;15.27;;;8.50;;
17091;SDS011;8661;45.700;4.880;2022-10-31T04:08:37;17.50;;;8.40;;
17091;SDS011;8661;45.700;4.880;2022-10-31T04:11:07;11.77;;;7.77;;
17091;SDS011;8661;45.700;4.880;2022-10-31T04:13:36;15.90;;;9.50;;
17091;SDS011;8661;45.700;4.880;2022-10-31T04:16:04;18.30;;;8.83;;
17091;SDS011;8661;45.700;4.880;2022-10-31T04:18:32;24.93;;;8.53;;
17091;SDS011;8661;45.700;4.880;2022-10-31T04:21:01;19.30;;;8.57;;
17091;SDS011;8661;45.700;4.880;2022-10-31T04:23:30;13.50;;;7.73;;
17091;SDS011;8661;45.700;4.880;2022-10-31T04:25:57;19.63;;;8.80;;
17091;SDS011;8661;45.700;4.880;2022-10-31T04:28:24;19.20;;;8.43;;
17091;SDS011;8661;45.700;4.880;2022-10-31T04:30:51;15.13;;;8.07;;
17091;SDS011;8661;45.700;4.880;2022-10-31T04:33:18;19.17;;;9.10;;
17091;SDS011;8661;45.700;4.880;2022-10-31T04:35:45;16.20;;;8.40;;
17091;SDS011;8661;45.700;4.880;2022-10-31T04:38:13;17.77;;;8.37;;
17091;SDS011;8661;45.700;4.880;2022-10-31T04:40:40;14.87;;;8.30;;
17091;SDS011;8661;45.700;4.880;2022-10-31T04:43:07;19.30;;;8.17;;
17091;SDS011;8661;45.700;4.880;2022-10-31T04:45:34;19.57;;;8.57;;
17091;SDS011;8661;45.700;4.880;2022-10-31T04:48:00;19.77;;;8.40;;
17091;SDS011;8661;45.700;4.880;2022-10-31T04:50:27;17.83;;;9.27;;
17091;SDS011;8661;45.700;4.880;2022-10-31T04:52:54;15.63;;;9.13;;
17091;SDS011;8661;45.700;4.880;2022-10-31T04:55:22;19.63;;;9.17;;
17091;SDS011;8661;45.700;4.880;2022-10-31T04:57:49;23.83;;;10.20;;
17091;SDS011;8661;45.700;4.880;2022-10-31T05:00:17;16.60;;;8.97;;
17091;SDS011;8661;45.700;4.880;2022-10-31T05:02:45;21.47;;;8.80;;
17091;SDS011;8661;45.700;4.880;2022-10-31T05:05:12;20.67;;;9.20;;
17091;SDS011;8661;45.700;4.880;2022-10-31T05:07:39;16.33;;;8.87;;
17091;SDS011;8661;45.700;4.880;2022-10-31T05:10:08;23.50;;;9.67;;
17091;SDS011;8661;45.700;4.880;2022-10-31T05:12:37;17.70;;;9.20;;
17091;SDS011;8661;45.700;4.880;2022-10-31T05:15:04;22.90;;;10.57;;
17091;SDS011;8661;45.700;4.880;2022-10-31T05:17:31;18.90;;;9.53;;
17091;SDS011;8661;45.700;4.880;2022-10-31T05:19:58;21.27;;;9.57;;
17091;SDS011;8661;45.700;4.880;2022-10-31T05:22:25;20.37;;;9.10;;
17091;SDS011;8661;45.700;4.880;2022-10-31T05:24:52;20.93;;;9.83;;
17091;SDS011;8661;45.700;4.880;2022-10-31T05:27:19;18.27;;;9.43;;
17091;SDS011;8661;45.700;4.880;2022-10-31T05:29:56;20.33;;;9.70;;
17091;SDS011;8661;45.700;4.880;2022-10-31T05:32:23;18.00;;;9.33;;
17091;SDS011;8661;45.700;4.880;2022-10-31T05:34:49;25.73;;;10.63;;
17091;SDS011;8661;45.700;4.880;2022-10-31T05:37:16;19.13;;;9.33;;
17091;SDS011;8661;45.700;4.880;2022-10-31T05:39:43;22.63;;;9.80;;
17091;SDS011;8661;45.700;4.880;2022-10-31T05:42:10;19.60;;;10.20;;
17091;SDS011;8661;45.700;4.880;2022-10-31T05:44:37;16.70;;;9.50;;
17091;SDS011;8661;45.700;4.880;2022-10-31T05:47:05;15.80;;;9.63;;
17091;SDS011;8661;45.700;4.880;2022-10-31T05:49:32;19.43;;;9.90;;
17091;SDS011;8661;45.700;4.880;2022-10-31T05:51:59;26.57;;;10.27;;
17091;SDS011;8661;45.700;4.880;2022-10-31T05:54:26;19.27;;;10.17;;
17091;SDS011;8661;45.700;4.880;2022-10-31T05:56:53;27.08;;;12.65;;
17091;SDS011;8661;45.700;4.880;2022-10-31T05:59:20;29.47;;;11.27;;
17091;SDS011;8661;45.700;4.880;2022-10-31T06:01:46;24.43;;;10.47;;
17091;SDS011;8661;45.700;4.880;2022-10-31T06:04:16;23.00;;;11.20;;
17091;SDS011;8661;45.700;4.880;2022-10-31T06:06:43;19.50;;;11.10;;
17091;SDS011;8661;45.700;4.880;2022-10-31T06:09:10;22.33;;;11.13;;
17091;SDS011;8661;45.700;4.880;2022-10-31T06:11:37;22.30;;;11.90;;
17091;SDS011;8661;45.700;4.880;2022-10-31T06:14:04;23.27;;;11.80;;
17091;SDS011;8661;45.700;4.880;2022-10-31T06:16:32;24.77;;;12.17;;
17091;SDS011;8661;45.700;4.880;2022-10-31T06:18:59;24.67;;;12.00;;
17091;SDS011;8661;45.700;4.880;2022-10-31T06:21:28;24.70;;;10.70;;
17091;SDS011;8661;45.700;4.880;2022-10-31T06:23:55;20.67;;;11.10;;
17091;SDS011;8661;45.700;4.880;2022-10-31T06:26:22;20.00;;;11.10;;
17091;SDS011;8661;45.700;4.880;2022-10-31T06:28:49;20.83;;;11.93;;
17091;SDS011;8661;45.700;4.880;2022-10-31T06:31:16;24.37;;;11.33;;
17091;SDS011;8661;45.700;4.880;2022-10-31T06:33:43;23.70;;;11.37;;
17091;SDS011;8661;45.700;4.880;2022-10-31T06:36:10;24.70;;;11.30;;
17091;SDS011;8661;45.700;4.880;2022-10-31T06:38:39;30.40;;;12.30;;
17091;SDS011;8661;45.700;4.880;2022-10-31T06:41:08;28.53;;;11.83;;
17091;SDS011;8661;45.700;4.880;2022-10-31T06:43:35;22.30;;;11.57;;
17091;SDS011;8661;45.700;4.880;2022-10-31T06:46:02;27.27;;;12.10;;
17091;SDS011;8661;45.700;4.880;2022-10-31T06:48:30;25.63;;;11.90;;
17091;SDS011;8661;45.700;4.880;2022-10-31T06:50:58;33.07;;;12.40;;
17091;SDS011;8661;45.700;4.880;2022-10-31T06:53:25;26.90;;;12.17;;
17091;SDS011;8661;45.700;4.880;2022-10-31T06:55:56;27.23;;;11.73;;
17091;SDS011;8661;45.700;4.880;2022-10-31T06:58:23;25.17;;;11.67;;
17091;SDS011;8661;45.700;4.880;2022-10-31T07:00:50;30.00;;;12.60;;
17091;SDS011;8661;45.700;4.880;2022-10-31T07:03:17;29.27;;;12.23;;
17091;SDS011;8661;45.700;4.880;2022-10-31T07:05:45;26.07;;;11.20;;
17091;SDS011;8661;45.700;4.880;2022-10-31T07:08:12;26.40;;;12.40;;
17091;SDS011;8661;45.700;4.880;2022-10-31T07:10:40;23.83;;;10.07;;
17091;SDS011;8661;45.700;4.880;2022-10-31T07:13:11;30.53;;;11.77;;
17091;SDS011;8661;45.700;4.880;2022-10-31T07:15:39;23.97;;;11.47;;
17091;SDS011;8661;45.700;4.880;2022-10-31T07:18:07;21.03;;;10.70;;
17091;SDS011;8661;45.700;4.880;2022-10-31T07:20:35;26.20;;;11.97;;
17091;SDS011;8661;45.700;4.880;2022-10-31T07:23:02;19.83;;;10.53;;
17091;SDS011;8661;45.700;4.880;2022-10-31T07:25:30;20.57;;;11.47;;
17091;SDS011;8661;45.700;4.880;2022-10-31T07:27:57;27.13;;;10.90;;
17091;SDS011;8661;45.700;4.880;2022-10-31T07:30:25;20.07;;;10.57;;
17091;SDS011;8661;45.700;4.880;2022-10-31T07:32:52;22.80;;;11.23;;
17091;SDS011;8661;45.700;4.880;2022-10-31T07:35:21;20.27;;;10.63;;
17091;SDS011;8661;45.700;4.880;2022-10-31T07:37:49;17.70;;;10.37;;
17091;SDS011;8661;45.700;4.880;2022-10-31T07:40:16;25.87;;;9.70;;
17091;SDS011;8661;45.700;4.880;2022-10-31T07:42:44;21.17;;;10.07;;
17091;SDS011;8661;45.700;4.880;2022-10-31T07:45:13;21.13;;;9.37;;
17091;SDS011;8661;45.700;4.880;2022-10-31T07:47:43;21.33;;;9.77;;
17091;SDS011;8661;45.700;4.880;2022-10-31T07:50:11;61.87;;;21.93;;
17091;SDS011;8661;45.700;4.880;2022-10-31T07:52:39;15.87;;;8.80;;
17091;SDS011;8661;45.700;4.880;2022-10-31T07:55:07;12.83;;;8.83;;
17091;SDS011;8661;45.700;4.880;2022-10-31T07:57:35;19.27;;;8.50;;
17091;SDS011;8661;45.700;4.880;2022-10-31T08:00:02;18.40;;;7.57;;
17091;SDS011;8661;45.700;4.880;2022-10-31T08:02:30;14.97;;;8.37;;
17091;SDS011;8661;45.700;4.880;2022-10-31T08:04:58;18.67;;;8.90;;
17091;SDS011;8661;45.700;4.880;2022-10-31T08:07:27;20.37;;;8.30;;
17091;SDS011;8661;45.700;4.880;2022-10-31T08:09:54;17.13;;;8.57;;
17091;SDS011;8661;45.700;4.880;2022-10-31T08:12:21;18.37;;;8.17;;
17091;SDS011;8661;45.700;4.880;2022-10-31T08:14:49;24.33;;;9.00;;
17091;SDS011;8661;45.700;4.880;2022-10-31T08:17:16;25.07;;;8.67;;
17091;SDS011;8661;45.700;4.880;2022-10-31T08:19:43;21.33;;;8.50;;
17091;SDS011;8661;45.700;4.880;2022-10-31T08:22:12;16.07;;;7.87;;
17091;SDS011;8661;45.700;4.880;2022-10-31T08:24:39;13.33;;;8.33;;
17091;SDS011;8661;45.700;4.880;2022-10-31T08:27:06;22.73;;;7.80;;
17091;SDS011;8661;45.700;4.880;2022-10-31T08:29:33;17.40;;;8.00;;
17091;SDS011;8661;45.700;4.880;2022-10-31T08:32:00;18.07;;;8.50;;
17091;SDS011;8661;45.700;4.880;2022-10-31T08:34:27;16.53;;;8.03;;
17091;SDS011;8661;45.700;4.880;2022-10-31T08:36:54;15.60;;;8.00;;
17091;SDS011;8661;45.700;4.880;2022-10-31T08:39:22;16.60;;;8.30;;
17091;SDS011;8661;45.700;4.880;2022-10-31T08:41:49;18.57;;;7.90;;
17091;SDS011;8661;45.700;4.880;2022-10-31T08:44:16;21.70;;;8.83;;
17091;SDS011;8661;45.700;4.880;2022-10-31T08:46:43;16.10;;;7.63;;
17091;SDS011;8661;45.700;4.880;2022-10-31T08:49:10;16.33;;;7.47;;
17091;SDS011;8661;45.700;4.880;2022-10-31T08:51:37;22.00;;;7.97;;
17091;SDS011;8661;45.700;4.880;2022-10-31T08:54:04;17.27;;;7.17;;
17091;SDS011;8661;45.700;4.880;2022-10-31T08:56:32;16.13;;;7.47;;
17091;SDS011;8661;45.700;4.880;2022-10-31T08:58:59;18.47;;;8.43;;
17091;SDS011;8661;45.700;4.880;2022-10-31T09:01:26;17.97;;;7.57;;
17091;SDS011;8661;45.700;4.880;2022-10-31T09:03:53;21.47;;;8.30;;
17091;SDS011;8661;45.700;4.880;2022-10-31T09:06:20;16.93;;;7.10;;
17091;SDS011;8661;45.700;4.880;2022-10-31T09:08:46;17.97;;;7.67;;
17091;SDS011;8661;45.700;4.880;2022-10-31T09:11:13;19.30;;;7.70;;
17091;SDS011;8661;45.700;4.880;2022-10-31T09:13:42;15.33;;;6.47;;
17091;SDS011;8661;45.700;4.880;2022-10-31T09:16:08;18.63;;;6.20;;
17091;SDS011;8661;45.700;4.880;2022-10-31T09:18:35;17.47;;;6.47;;
17091;SDS011;8661;45.700;4.880;2022-10-31T09:21:02;18.93;;;5.87;;
17091;SDS011;8661;45.700;4.880;2022-10-31T09:23:29;15.50;;;6.43;;
17091;SDS011;8661;45.700;4.880;2022-10-31T09:25:58;14.10;;;6.00;;
17091;SDS011;8661;45.700;4.880;2022-10-31T09:28:26;14.57;;;5.83;;
17091;SDS011;8661;45.700;4.880;2022-10-31T09:30:54;14.97;;;5.57;;
17091;SDS011;8661;45.700;4.880;2022-10-31T09:33:21;16.23;;;5.80;;
17091;SDS011;8661;45.700;4.880;2022-10-31T09:35:48;16.53;;;6.30;;
17091;SDS011;8661;45.700;4.880;2022-10-31T09:38:16;22.63;;;6.43;;
17091;SDS011;8661;45.700;4.880;2022-10-31T09:40:44;11.30;;;5.83;;
17091;SDS011;8661;45.700;4.880;2022-10-31T09:43:14;14.00;;;5.03;;
17091;SDS011;8661;45.700;4.880;2022-10-31T09:45:51;19.37;;;5.37;;
17091;SDS011;8661;45.700;4.880;2022-10-31T09:48:30;13.10;;;4.80;;
17091;SDS011;8661;45.700;4.880;2022-10-31T09:51:07;15.80;;;5.40;;
17091;SDS011;8661;45.700;4.880;2022-10-31T09:53:38;13.87;;;5.00;;
17091;SDS011;8661;45.700;4.880;2022-10-31T09:56:09;17.73;;;5.13;;
17091;SDS011;8661;45.700;4.880;2022-10-31T09:58:40;10.67;;;5.27;;
17091;SDS011;8661;45.700;4.880;2022-10-31T10:01:23;13.93;;;5.20;;
17091;SDS011;8661;45.700;4.880;2022-10-31T10:03:57;16.27;;;5.50;;
17091;SDS011;8661;45.700;4.880;2022-10-31T10:06:28;15.10;;;4.63;;
17091;SDS011;8661;45.700;4.880;2022-10-31T10:08:58;14.57;;;4.83;;
17091;SDS011;8661;45.700;4.880;2022-10-31T10:14:31;13.13;;;4.57;;
17091;SDS011;8661;45.700;4.880;2022-10-31T10:17:13;11.03;;;4.63;;
17091;SDS011;8661;45.700;4.880;2022-10-31T10:19:51;14.63;;;4.27;;
17091;SDS011;8661;45.700;4.880;2022-10-31T10:22:30;12.43;;;4.60;;
17091;SDS011;8661;45.700;4.880;2022-10-31T10:25:08;14.77;;;4.37;;
17091;SDS011;8661;45.700;4.880;2022-10-31T10:27:45;17.20;;;4.40;;
17091;SDS011;8661;45.700;4.880;2022-10-31T10:30:17;13.20;;;4.23;;
17091;SDS011;8661;45.700;4.880;2022-10-31T10:32:58;14.07;;;3.67;;
17091;SDS011;8661;45.700;4.880;2022-10-31T10:35:29;15.33;;;4.00;;
17091;SDS011;8661;45.700;4.880;2022-10-31T10:38:01;12.77;;;3.90;;
17091;SDS011;8661;45.700;4.880;2022-10-31T10:40:34;20.43;;;4.10;;
17091;SDS011;8661;45.700;4.880;2022-10-31T10:43:07;20.50;;;4.23;;
17091;SDS011;8661;45.700;4.880;2022-10-31T10:45:49;10.53;;;3.40;;
17091;SDS011;8661;45.700;4.880;2022-10-31T10:48:40;16.43;;;3.83;;
17091;SDS011;8661;45.700;4.880;2022-10-31T10:51:18;14.03;;;3.57;;
17091;SDS011;8661;45.700;4.880;2022-10-31T10:53:51;13.00;;;3.50;;
17091;SDS011;8661;45.700;4.880;2022-10-31T10:56:44;10.93;;;3.40;;
17091;SDS011;8661;45.700;4.880;2022-10-31T10:59:20;21.10;;;4.43;;
17091;SDS011;8661;45.700;4.880;2022-10-31T11:01:48;15.47;;;3.63;;
17091;SDS011;8661;45.700;4.880;2022-10-31T11:04:29;12.43;;;3.67;;
17091;SDS011;8661;45.700;4.880;2022-10-31T11:07:01;14.13;;;3.67;;
17091;SDS011;8661;45.700;4.880;2022-10-31T11:09:30;11.57;;;3.57;;
17091;SDS011;8661;45.700;4.880;2022-10-31T11:11:57;9.63;;;3.70;;
17091;SDS011;8661;45.700;4.880;2022-10-31T11:14:25;16.17;;;3.63;;
17091;SDS011;8661;45.700;4.880;2022-10-31T11:16:54;9.73;;;3.40;;
17091;SDS011;8661;45.700;4.880;2022-10-31T11:19:35;15.50;;;4.00;;
17091;SDS011;8661;45.700;4.880;2022-10-31T11:22:06;16.03;;;4.10;;
17091;SDS011;8661;45.700;4.880;2022-10-31T11:24:36;12.73;;;3.80;;
17091;SDS011;8661;45.700;4.880;2022-10-31T11:27:09;12.57;;;3.40;;
17091;SDS011;8661;45.700;4.880;2022-10-31T11:29:43;12.93;;;3.20;;
17091;SDS011;8661;45.700;4.880;2022-10-31T11:32:17;10.27;;;3.33;;
17091;SDS011;8661;45.700;4.880;2022-10-31T11:34:49;13.23;;;3.80;;
17091;SDS011;8661;45.700;4.880;2022-10-31T11:37:20;11.27;;;3.83;;
17091;SDS011;8661;45.700;4.880;2022-10-31T11:39:50;15.53;;;4.17;;
17091;SDS011;8661;45.700;4.880;2022-10-31T11:42:20;10.60;;;3.60;;
17091;SDS011;8661;45.700;4.880;2022-10-31T11:44:49;11.90;;;4.07;;
17091;SDS011;8661;45.700;4.880;2022-10-31T11:47:17;14.93;;;3.77;;
17091;SDS011;8661;45.700;4.880;2022-10-31T11:49:52;6.03;;;3.07;;
17091;SDS011;8661;45.700;4.880;2022-10-31T11:52:21;11.80;;;3.60;;
17091;SDS011;8661;45.700;4.880;2022-10-31T11:54:51;8.37;;;3.63;;
17091;SDS011;8661;45.700;4.880;2022-10-31T11:57:24;14.23;;;3.50;;
17091;SDS011;8661;45.700;4.880;2022-10-31T11:59:53;12.10;;;3.83;;
17091;SDS011;8661;45.700;4.880;2022-10-31T12:02:22;9.10;;;3.57;;
17091;SDS011;8661;45.700;4.880;2022-10-31T12:04:51;9.93;;;3.53;;
17091;SDS011;8661;45.700;4.880;2022-10-31T12:07:24;11.60;;;3.80;;
17091;SDS011;8661;45.700;4.880;2022-10-31T12:09:51;10.03;;;3.50;;
17091;SDS011;8661;45.700;4.880;2022-10-31T12:12:35;9.93;;;3.80;;
17091;SDS011;8661;45.700;4.880;2022-10-31T12:15:17;11.37;;;3.50;;
17091;SDS011;8661;45.700;4.880;2022-10-31T12:17:55;15.23;;;3.90;;
17091;SDS011;8661;45.700;4.880;2022-10-31T12:20:33;12.30;;;3.77;;
17091;SDS011;8661;45.700;4.880;2022-10-31T12:23:09;14.73;;;3.17;;
17091;SDS011;8661;45.700;4.880;2022-10-31T12:25:43;9.37;;;3.40;;
17091;SDS011;8661;45.700;4.880;2022-10-31T12:28:23;11.03;;;3.53;;
17091;SDS011;8661;45.700;4.880;2022-10-31T12:31:03;11.93;;;3.60;;
17091;SDS011;8661;45.700;4.880;2022-10-31T12:33:46;11.40;;;3.10;;
17091;SDS011;8661;45.700;4.880;2022-10-31T12:36:29;14.50;;;3.70;;
17091;SDS011;8661;45.700;4.880;2022-10-31T12:39:14;15.17;;;3.83;;
17091;SDS011;8661;45.700;4.880;2022-10-31T12:41:58;7.77;;;3.10;;
17091;SDS011;8661;45.700;4.880;2022-10-31T12:44:38;10.53;;;3.70;;
17091;SDS011;8661;45.700;4.880;2022-10-31T12:50:27;15.43;;;3.97;;
17091;SDS011;8661;45.700;4.880;2022-10-31T12:53:06;15.63;;;3.70;;
17091;SDS011;8661;45.700;4.880;2022-10-31T12:55:48;9.10;;;3.40;;
17091;SDS011;8661;45.700;4.880;2022-10-31T12:58:23;10.50;;;3.20;;
17091;SDS011;8661;45.700;4.880;2022-10-31T13:00:55;11.63;;;2.73;;
17091;SDS011;8661;45.700;4.880;2022-10-31T13:03:33;9.33;;;3.37;;
17091;SDS011;8661;45.700;4.880;2022-10-31T13:06:09;9.00;;;3.13;;
17091;SDS011;8661;45.700;4.880;2022-10-31T13:08:44;11.57;;;2.77;;
17091;SDS011;8661;45.700;4.880;2022-10-31T13:11:16;13.03;;;3.00;;
17091;SDS011;8661;45.700;4.880;2022-10-31T13:13:48;12.03;;;3.33;;
17091;SDS011;8661;45.700;4.880;2022-10-31T13:16:22;14.50;;;3.30;;
17091;SDS011;8661;45.700;4.880;2022-10-31T13:18:54;7.20;;;2.93;;
17091;SDS011;8661;45.700;4.880;2022-10-31T13:21:25;13.30;;;2.97;;
17091;SDS011;8661;45.700;4.880;2022-10-31T13:23:55;12.70;;;3.00;;
17091;SDS011;8661;45.700;4.880;2022-10-31T13:26:31;10.57;;;3.20;;
17091;SDS011;8661;45.700;4.880;2022-10-31T13:29:05;12.23;;;4.00;;
17091;SDS011;8661;45.700;4.880;2022-10-31T13:31:39;12.57;;;3.77;;
17091;SDS011;8661;45.700;4.880;2022-10-31T13:34:09;14.33;;;3.17;;
17091;SDS011;8661;45.700;4.880;2022-10-31T13:36:45;14.93;;;3.73;;
17091;SDS011;8661;45.700;4.880;2022-10-31T13:39:23;13.77;;;3.30;;
17091;SDS011;8661;45.700;4.880;2022-10-31T13:42:08;16.80;;;3.83;;
17091;SDS011;8661;45.700;4.880;2022-10-31T13:44:40;7.93;;;3.00;;
17091;SDS011;8661;45.700;4.880;2022-10-31T13:50:02;13.85;;;3.67;;
17091;SDS011;8661;45.700;4.880;2022-10-31T13:52:32;12.57;;;4.37;;
17091;SDS011;8661;45.700;4.880;2022-10-31T13:55:20;12.20;;;3.50;;
17091;SDS011;8661;45.700;4.880;2022-10-31T13:58:16;6.17;;;3.07;;
17091;SDS011;8661;45.700;4.880;2022-10-31T14:00:57;14.27;;;3.87;;
17091;SDS011;8661;45.700;4.880;2022-10-31T14:03:25;9.00;;;3.93;;
17091;SDS011;8661;45.700;4.880;2022-10-31T14:05:53;13.20;;;3.77;;
17091;SDS011;8661;45.700;4.880;2022-10-31T14:08:22;13.03;;;3.90;;
17091;SDS011;8661;45.700;4.880;2022-10-31T14:10:52;22.90;;;4.10;;
17091;SDS011;8661;45.700;4.880;2022-10-31T14:13:22;15.83;;;4.00;;
17091;SDS011;8661;45.700;4.880;2022-10-31T14:15:54;10.43;;;3.70;;
17091;SDS011;8661;45.700;4.880;2022-10-31T14:18:24;13.33;;;4.60;;
17091;SDS011;8661;45.700;4.880;2022-10-31T14:20:59;13.97;;;4.40;;
17091;SDS011;8661;45.700;4.880;2022-10-31T14:23:37;12.27;;;4.30;;
17091;SDS011;8661;45.700;4.880;2022-10-31T14:26:07;18.07;;;5.17;;
17091;SDS011;8661;45.700;4.880;2022-10-31T14:28:45;11.90;;;4.53;;
17091;SDS011;8661;45.700;4.880;2022-10-31T14:31:26;13.77;;;4.97;;
17091;SDS011;8661;45.700;4.880;2022-10-31T14:34:00;8.73;;;4.33;;
17091;SDS011;8661;45.700;4.880;2022-10-31T14:36:33;15.10;;;4.43;;
17091;SDS011;8661;45.700;4.880;2022-10-31T14:39:14;19.27;;;4.87;;
17091;SDS011;8661;45.700;4.880;2022-10-31T14:41:53;16.93;;;4.73;;
17091;SDS011;8661;45.700;4.880;2022-10-31T14:44:41;11.97;;;4.90;;
17091;SDS011;8661;45.700;4.880;2022-10-31T14:47:26;20.43;;;6.63;;
17091;SDS011;8661;45.700;4.880;2022-10-31T14:53:04;21.03;;;5.90;;
17091;SDS011;8661;45.700;4.880;2022-10-31T14:55:32;15.93;;;5.57;;
17091;SDS011;8661;45.700;4.880;2022-10-31T14:58:04;16.43;;;5.83;;
17091;SDS011;8661;45.700;4.880;2022-10-31T15:00:33;20.93;;;6.77;;
17091;SDS011;8661;45.700;4.880;2022-10-31T15:03:04;13.03;;;5.33;;
17091;SDS011;8661;45.700;4.880;2022-10-31T15:05:41;10.87;;;5.00;;
17091;SDS011;8661;45.700;4.880;2022-10-31T15:08:13;13.70;;;5.57;;
17091;SDS011;8661;45.700;4.880;2022-10-31T15:10:51;14.57;;;4.47;;
17091;SDS011;8661;45.700;4.880;2022-10-31T15:13:21;17.73;;;4.77;;
17091;SDS011;8661;45.700;4.880;2022-10-31T15:15:48;13.80;;;4.30;;
17091;SDS011;8661;45.700;4.880;2022-10-31T15:18:17;12.17;;;3.73;;
17091;SDS011;8661;45.700;4.880;2022-10-31T15:20:48;21.10;;;5.10;;
17091;SDS011;8661;45.700;4.880;2022-10-31T15:23:24;10.87;;;3.63;;